Time;durP1;ratioP1;P1;durP2;ratioP2;P2;SDS_P1;SDS_P2;PMS_P1;PMS_P2;Temp;Humidity;BMP_temperature;BMP_pressure;BME280_temperature;BME280_humidity;BME280_pressure;Samples;Min_cycle;Max_cycle;Signal;HPM_P1;HPM_P2
2023/10/19 00:00:43;;;;;;;1.92;0.30;;;17.80;99.90;;;;;;5013657;28;20080;-63
2023/10/19 00:03:11;;;;;;;1.98;0.35;;;17.80;99.90;;;;;;5013704;28;20036;-62
2023/10/19 00:05:37;;;;;;;4.43;0.70;;;17.80;99.90;;;;;;5028818;28;20022;-62
2023/10/19 00:08:19;;;;;;;2.47;0.52;;;17.80;99.90;;;;;;5013716;28;20026;-62
2023/10/19 00:10:50;;;;;;;0.85;0.30;;;17.80;99.90;;;;;;5013282;28;20042;-62
2023/10/19 00:13:19;;;;;;;2.75;0.65;;;17.80;99.90;;;;;;5013513;28;20020;-63
2023/10/19 00:15:54;;;;;;;2.25;0.30;;;17.80;99.90;;;;;;5013570;28;20026;-62
2023/10/19 00:18:21;;;;;;;1.95;0.30;;;17.80;99.90;;;;;;5013725;28;20057;-62
2023/10/19 00:20:52;;;;;;;2.47;0.40;;;17.80;99.90;;;;;;5013294;28;20026;-62
2023/10/19 00:23:31;;;;;;;3.45;0.70;;;17.80;99.90;;;;;;5013577;28;20018;-61
2023/10/19 00:26:08;;;;;;;2.05;0.40;;;17.80;99.90;;;;;;5013053;28;20060;-62
2023/10/19 00:28:35;;;;;;;3.30;0.50;;;17.80;99.90;;;;;;5013529;28;20467;-62
2023/10/19 00:31:07;;;;;;;3.97;0.50;;;17.80;99.90;;;;;;5013370;28;20443;-61
2023/10/19 00:33:33;;;;;;;;;;;17.80;99.90;;;;;;5013899;28;20057;-62
2023/10/19 00:36:08;;;;;;;2.70;0.43;;;17.80;99.90;;;;;;5012284;28;19952;-62
2023/10/19 00:43:37;;;;;;;3.05;0.60;;;17.80;99.90;;;;;;5011456;28;20022;-62
2023/10/19 00:46:42;;;;;;;2.10;0.57;;;17.80;99.90;;;;;;5013288;28;20049;-63
2023/10/19 00:48:58;;;;;;;;;;;17.80;99.90;;;;;;5013336;28;20030;-63
2023/10/19 00:54:16;;;;;;;2.05;0.38;;;17.80;99.90;;;;;;5013397;28;20066;-63
2023/10/19 00:56:55;;;;;;;2.90;0.63;;;17.80;99.90;;;;;;5013114;28;20046;-62
2023/10/19 00:59:23;;;;;;;1.88;0.30;;;17.80;99.90;;;;;;5015218;28;20026;-64
2023/10/19 01:01:55;;;;;;;2.70;0.68;;;17.80;99.90;;;;;;5017022;28;20379;-63
2023/10/19 01:04:30;;;;;;;2.03;0.40;;;17.80;99.90;;;;;;5017040;28;20028;-62
2023/10/19 01:07:11;;;;;;;2.92;0.73;;;17.80;99.90;;;;;;5016899;28;20096;-62
2023/10/19 01:09:38;;;;;;;2.38;0.40;;;17.80;99.90;;;;;;5016641;28;20383;-63
2023/10/19 01:15:07;;;;;;;2.92;0.50;;;17.80;99.90;;;;;;5017245;28;20442;-63
2023/10/19 01:17:38;;;;;;;3.97;0.68;;;17.80;99.90;;;;;;5016726;28;20030;-64
2023/10/19 01:20:18;;;;;;;2.92;0.55;;;17.80;99.90;;;;;;5016712;28;20382;-62
2023/10/19 01:25:58;;;;;;;2.63;0.25;;;17.80;99.90;;;;;;5016827;28;20042;-62
2023/10/19 01:28:28;;;;;;;2.30;0.43;;;17.80;99.90;;;;;;5016391;28;20034;-64
2023/10/19 01:30:54;;;;;;;4.03;0.47;;;17.80;99.90;;;;;;5016437;28;20478;-63
2023/10/19 01:33:22;;;;;;;3.40;0.85;;;17.80;99.90;;;;;;5016413;28;20104;-62
2023/10/19 01:38:33;;;;;;;2.78;0.47;;;17.80;99.90;;;;;;5016398;28;20095;-62
2023/10/19 01:41:00;;;;;;;3.50;0.55;;;17.80;99.90;;;;;;5016458;28;20041;-62
2023/10/19 01:43:32;;;;;;;3.20;0.35;;;17.90;99.90;;;;;;5016307;28;20033;-62
2023/10/19 01:46:05;;;;;;;4.55;0.52;;;17.80;99.90;;;;;;5016505;28;20033;-62
2023/10/19 01:48:34;;;;;;;5.18;0.68;;;17.80;99.90;;;;;;5016253;28;20403;-62
2023/10/19 01:51:05;;;;;;;4.72;0.50;;;17.80;99.90;;;;;;5015905;28;20038;-62
2023/10/19 01:53:36;;;;;;;3.90;0.63;;;17.80;99.90;;;;;;5015581;28;20031;-62
2023/10/19 01:56:05;;;;;;;5.72;0.70;;;17.80;99.90;;;;;;5031361;28;20429;-61
2023/10/19 01:58:36;;;;;;;1.52;0.40;;;17.80;99.90;;;;;;5016089;28;20018;-62
2023/10/19 02:01:08;;;;;;;4.38;0.47;;;17.80;99.90;;;;;;5016090;28;20058;-62
2023/10/19 02:03:35;;;;;;;3.38;0.57;;;17.90;99.90;;;;;;5015690;28;20028;-63
2023/10/19 02:06:16;;;;;;;4.03;0.45;;;17.80;99.90;;;;;;5015956;28;20026;-64
2023/10/19 02:08:53;;;;;;;2.17;0.50;;;17.80;99.90;;;;;;5015668;28;20042;-62
2023/10/19 02:11:23;;;;;;;2.95;0.65;;;17.90;99.90;;;;;;5014804;28;20050;-62
2023/10/19 02:13:52;;;;;;;2.13;0.32;;;17.80;99.90;;;;;;5015709;28;20026;-62
2023/10/19 02:16:32;;;;;;;3.45;0.73;;;17.80;99.90;;;;;;5015914;28;20407;-62
2023/10/19 02:18:58;;;;;;;4.43;0.73;;;17.80;99.90;;;;;;5015674;28;20035;-62
2023/10/19 02:21:30;;;;;;;2.60;0.55;;;17.80;99.90;;;;;;5015007;28;20038;-62
2023/10/19 02:23:59;;;;;;;2.90;0.57;;;17.80;99.90;;;;;;5015606;28;20101;-62
2023/10/19 02:26:28;;;;;;;3.25;0.52;;;17.80;99.90;;;;;;5015633;28;20041;-62
2023/10/19 02:28:55;;;;;;;2.95;0.65;;;17.90;99.90;;;;;;5015387;28;20471;-62
2023/10/19 02:31:23;;;;;;;5.47;1.10;;;17.80;99.90;;;;;;5015247;28;20065;-62
2023/10/19 02:33:59;;;;;;;3.70;0.90;;;17.90;99.90;;;;;;5015244;28;20018;-62
2023/10/19 02:36:29;;;;;;;4.15;0.60;;;17.90;99.90;;;;;;5015304;28;20025;-62
2023/10/19 02:39:07;;;;;;;1.98;0.38;;;17.90;99.90;;;;;;5015089;28;20032;-62
2023/10/19 02:41:35;;;;;;;5.95;0.98;;;17.90;99.90;;;;;;5015282;28;20145;-62
2023/10/19 02:44:09;;;;;;;3.38;0.75;;;17.80;99.90;;;;;;5013979;28;20033;-64
2023/10/19 02:46:38;;;;;;;5.10;0.93;;;17.90;99.90;;;;;;5015172;28;20379;-62
2023/10/19 02:49:10;;;;;;;3.88;0.68;;;17.80;99.90;;;;;;5014749;28;20018;-62
2023/10/19 02:51:36;;;;;;;5.63;1.20;;;17.80;99.90;;;;;;5014638;28;20061;-62
2023/10/19 02:54:02;;;;;;;3.22;0.40;;;17.80;99.90;;;;;;5014920;28;20018;-62
2023/10/19 02:56:29;;;;;;;5.15;0.50;;;17.80;99.90;;;;;;5015123;28;20049;-64
2023/10/19 02:59:01;;;;;;;4.78;1.05;;;17.80;99.90;;;;;;5014924;28;20018;-63
2023/10/19 03:01:34;;;;;;;3.55;1.00;;;17.80;99.90;;;;;;5014822;28;20021;-62
2023/10/19 03:04:01;;;;;;;7.30;2.15;;;17.80;99.90;;;;;;5014128;28;20383;-63
2023/10/19 03:06:32;;;;;;;2.50;0.65;;;17.80;99.90;;;;;;5015019;28;20093;-62
2023/10/19 03:09:00;;;;;;;4.38;0.77;;;17.80;99.90;;;;;;5014201;28;20489;-62
2023/10/19 03:11:27;;;;;;;2.95;0.55;;;17.80;99.90;;;;;;5013494;28;20034;-62
2023/10/19 03:13:54;;;;;;;2.33;0.50;;;17.80;99.90;;;;;;5014622;28;20030;-63
2023/10/19 03:16:21;;;;;;;4.25;0.80;;;17.80;99.90;;;;;;5014618;28;20037;-62
2023/10/19 03:18:47;;;;;;;6.22;0.73;;;17.80;99.90;;;;;;5014013;28;20479;-62
2023/10/19 03:21:13;;;;;;;3.25;0.75;;;17.80;99.90;;;;;;5014146;28;20026;-63
2023/10/19 03:23:40;;;;;;;3.15;0.55;;;17.80;99.90;;;;;;5014187;28;20460;-64
2023/10/19 03:28:55;;;;;;;5.60;1.02;;;17.80;99.90;;;;;;5014413;28;20506;-63
2023/10/19 03:31:27;;;;;;;2.65;0.55;;;17.80;99.90;;;;;;5014175;28;20073;-63
2023/10/19 03:33:59;;;;;;;5.47;0.93;;;17.70;99.90;;;;;;5013904;28;20030;-63
2023/10/19 03:36:26;;;;;;;4.40;2.30;;;17.80;99.90;;;;;;5014191;28;20453;-62
2023/10/19 03:38:53;;;;;;;5.03;1.42;;;17.80;99.90;;;;;;5013895;28;20053;-63
2023/10/19 03:41:26;;;;;;;4.22;1.17;;;17.80;99.90;;;;;;5014176;28;20033;-62
2023/10/19 03:43:57;;;;;;;3.13;0.73;;;17.80;99.90;;;;;;5014161;28;20030;-62
2023/10/19 03:46:28;;;;;;;5.57;0.80;;;17.80;99.90;;;;;;5029256;28;20403;-62
2023/10/19 03:48:58;;;;;;;4.35;0.80;;;17.80;99.90;;;;;;5013913;28;20386;-62
2023/10/19 03:51:26;;;;;;;6.53;1.00;;;17.80;99.90;;;;;;5013892;28;20467;-62
2023/10/19 03:53:58;;;;;;;6.10;1.17;;;17.80;99.90;;;;;;5013868;28;20025;-62
2023/10/19 03:56:24;;;;;;;6.80;1.08;;;17.80;99.90;;;;;;5014066;28;20105;-62
2023/10/19 03:58:50;;;;;;;4.50;1.35;;;17.80;99.90;;;;;;5013955;28;20041;-62
2023/10/19 04:01:19;;;;;;;6.45;1.10;;;17.80;99.90;;;;;;5013593;28;20096;-62
2023/10/19 04:03:45;;;;;;;4.45;1.10;;;17.80;99.90;;;;;;5013706;28;20029;-63
2023/10/19 04:06:14;;;;;;;6.38;1.50;;;17.80;99.90;;;;;;5013491;28;20041;-63
2023/10/19 04:08:42;;;;;;;6.32;1.33;;;17.80;99.90;;;;;;5013522;28;20022;-63
2023/10/19 04:11:12;;;;;;;15.55;2.03;;;17.80;99.90;;;;;;5013463;28;20084;-64
2023/10/19 04:13:38;;;;;;;3.10;0.77;;;17.80;99.90;;;;;;5013638;28;20103;-66
2023/10/19 04:16:09;;;;;;;3.20;0.73;;;17.80;99.90;;;;;;5013289;28;20041;-62
2023/10/19 04:18:39;;;;;;;4.47;0.77;;;17.90;99.90;;;;;;5013855;28;20471;-65
2023/10/19 04:21:05;;;;;;;7.00;1.30;;;17.90;99.90;;;;;;5013406;28;20037;-65
2023/10/19 04:23:34;;;;;;;2.67;0.70;;;18.00;99.90;;;;;;5013364;28;20022;-63
2023/10/19 04:26:13;;;;;;;3.83;1.00;;;18.00;99.90;;;;;;5013418;28;20497;-63
2023/10/19 04:28:49;;;;;;;5.20;1.00;;;18.00;99.90;;;;;;5013656;28;20026;-65
2023/10/19 04:31:16;;;;;;;5.30;1.20;;;18.00;99.90;;;;;;5013076;28;20096;-63
2023/10/19 04:33:51;;;;;;;6.15;0.90;;;18.00;99.90;;;;;;5028213;28;20018;-64
2023/10/19 04:36:21;;;;;;;6.72;1.20;;;18.00;99.90;;;;;;5013302;28;20588;-63
2023/10/19 04:38:47;;;;;;;7.90;0.95;;;18.10;99.90;;;;;;5013325;28;20018;-64
2023/10/19 04:41:12;;;;;;;4.85;0.95;;;18.10;99.90;;;;;;5013321;28;20053;-63
2023/10/19 04:43:39;;;;;;;4.40;1.00;;;18.10;99.90;;;;;;5013571;28;20482;-64
2023/10/19 04:46:10;;;;;;;7.30;1.40;;;18.00;99.90;;;;;;5012809;28;20093;-63
2023/10/19 04:48:37;;;;;;;4.72;0.90;;;18.10;99.90;;;;;;5028588;28;20022;-64
2023/10/19 04:51:04;;;;;;;5.57;1.70;;;18.00;99.90;;;;;;5013029;28;20493;-63
2023/10/19 04:53:31;;;;;;;6.63;1.08;;;18.10;99.90;;;;;;5013260;28;20452;-64
2023/10/19 04:55:56;;;;;;;5.10;0.90;;;18.10;99.90;;;;;;5013198;28;20026;-65
2023/10/19 04:58:22;;;;;;;3.25;0.73;;;18.10;99.90;;;;;;5007763;28;21295;-63
2023/10/19 05:00:48;;;;;;;3.60;0.63;;;18.10;99.90;;;;;;5000999;28;20037;-66
2023/10/19 05:03:18;;;;;;;4.95;1.08;;;18.10;99.90;;;;;;4995410;28;20097;-66
2023/10/19 05:05:44;;;;;;;5.00;1.00;;;18.10;99.90;;;;;;4999259;28;20456;-63
2023/10/19 05:08:10;;;;;;;5.22;1.00;;;18.10;99.90;;;;;;4997866;28;20041;-65
2023/10/19 05:10:36;;;;;;;5.15;0.60;;;18.10;99.90;;;;;;5003148;28;20041;-65
2023/10/19 05:13:01;;;;;;;5.30;0.93;;;18.10;99.90;;;;;;5008022;28;20026;-61
2023/10/19 05:15:27;;;;;;;4.43;1.02;;;18.10;99.90;;;;;;5002723;28;20373;-64
2023/10/19 05:17:53;;;;;;;6.25;1.20;;;18.10;99.90;;;;;;5001495;28;20041;-63
2023/10/19 05:20:20;;;;;;;3.50;0.77;;;18.10;99.90;;;;;;5001477;28;20022;-65
2023/10/19 05:22:47;;;;;;;5.85;1.48;;;18.10;99.90;;;;;;4999840;28;20391;-66
2023/10/19 05:25:13;;;;;;;6.55;1.50;;;18.00;99.90;;;;;;4996945;28;20494;-62
2023/10/19 05:27:39;;;;;;;5.88;1.00;;;18.00;99.90;;;;;;5000161;28;20026;-64
2023/10/19 05:30:05;;;;;;;3.70;1.17;;;18.00;99.90;;;;;;5000095;28;20025;-63
2023/10/19 05:32:33;;;;;;;13.25;1.58;;;18.00;99.90;;;;;;5008388;28;20031;-67
2023/10/19 05:35:03;;;;;;;6.25;1.42;;;18.10;99.90;;;;;;4998581;28;20543;-61
2023/10/19 05:37:29;;;;;;;4.07;1.00;;;18.00;99.90;;;;;;5011263;28;20515;-61
2023/10/19 05:39:55;;;;;;;9.15;1.23;;;18.10;99.90;;;;;;5011607;28;20490;-67
2023/10/19 05:42:22;;;;;;;6.13;1.20;;;18.10;99.90;;;;;;5011136;28;20070;-61
2023/10/19 05:44:47;;;;;;;5.60;1.05;;;18.10;99.90;;;;;;5012703;28;20018;-66
2023/10/19 05:47:13;;;;;;;7.60;1.20;;;18.10;99.90;;;;;;5002873;28;20460;-61
2023/10/19 05:49:38;;;;;;;6.18;1.45;;;18.00;99.90;;;;;;4996897;28;20049;-63
2023/10/19 05:52:04;;;;;;;6.82;1.50;;;18.00;99.90;;;;;;4999230;28;20475;-62
2023/10/19 05:54:30;;;;;;;8.65;1.20;;;18.10;99.90;;;;;;5007918;28;20034;-67
2023/10/19 05:56:56;;;;;;;8.57;1.85;;;18.00;99.90;;;;;;5015434;28;20034;-62
2023/10/19 05:59:26;;;;;;;7.78;1.55;;;18.10;99.90;;;;;;5007912;28;20047;-61
2023/10/19 06:01:52;;;;;;;5.28;1.23;;;18.10;99.90;;;;;;5002061;28;20464;-62
2023/10/19 06:04:17;;;;;;;5.20;0.98;;;18.10;99.90;;;;;;5007397;28;20023;-64
2023/10/19 06:06:43;;;;;;;7.80;1.40;;;18.10;99.90;;;;;;5006927;28;20034;-62
2023/10/19 06:09:09;;;;;;;9.45;1.80;;;18.10;99.90;;;;;;5002885;28;20034;-64
2023/10/19 06:11:37;;;;;;;5.93;1.40;;;18.10;99.90;;;;;;5015290;28;20037;-63
2023/10/19 06:14:06;;;;;;;6.03;1.58;;;18.10;99.90;;;;;;5012939;28;20030;-62
2023/10/19 06:16:33;;;;;;;5.25;1.50;;;18.10;99.90;;;;;;5009996;28;20109;-65
2023/10/19 06:18:59;;;;;;;5.40;1.40;;;18.10;99.90;;;;;;5007002;28;20022;-64
2023/10/19 06:21:28;;;;;;;15.80;1.73;;;18.10;99.90;;;;;;5014670;28;20395;-64
2023/10/19 06:23:54;;;;;;;17.20;2.70;;;18.10;99.90;;;;;;5026733;28;20104;-64
2023/10/19 06:26:20;;;;;;;12.45;2.95;;;18.10;99.90;;;;;;5014603;28;20018;-62
2023/10/19 06:28:45;;;;;;;40.45;5.22;;;18.10;99.90;;;;;;5014252;28;20379;-67
2023/10/19 06:31:12;;;;;;;11.80;2.30;;;18.10;99.90;;;;;;5015271;28;20467;-71
2023/10/19 06:33:41;;;;;;;14.45;2.17;;;18.00;99.90;;;;;;5015289;28;20029;-69
2023/10/19 06:36:06;;;;;;;15.95;2.70;;;18.00;99.90;;;;;;5015428;28;20018;-66
2023/10/19 06:38:32;;;;;;;20.80;2.83;;;18.10;99.90;;;;;;5015058;28;20026;-69
2023/10/19 06:40:59;;;;;;;13.82;2.20;;;18.10;99.90;;;;;;5014855;28;20033;-65
2023/10/19 06:43:28;;;;;;;16.23;2.70;;;18.10;99.90;;;;;;5015175;28;20068;-63
2023/10/19 06:45:55;;;;;;;11.35;2.50;;;18.10;99.90;;;;;;5015259;28;20029;-69
2023/10/19 06:48:20;;;;;;;9.70;2.15;;;18.00;99.90;;;;;;5015012;28;20084;-64
2023/10/19 06:50:46;;;;;;;11.88;2.05;;;18.10;99.90;;;;;;5014829;28;20038;-65
2023/10/19 06:53:12;;;;;;;12.38;1.83;;;18.10;99.90;;;;;;5014960;28;20024;-66
2023/10/19 06:55:38;;;;;;;9.50;2.42;;;18.00;99.90;;;;;;5014021;28;20088;-65
2023/10/19 06:58:04;;;;;;;10.52;2.15;;;18.10;99.90;;;;;;5014626;28;20022;-65
2023/10/19 07:00:30;;;;;;;7.05;1.85;;;18.00;99.90;;;;;;5013344;28;20083;-66
2023/10/19 07:03:00;;;;;;;9.45;2.00;;;18.00;99.90;;;;;;5014552;28;20022;-67
2023/10/19 07:05:29;;;;;;;6.35;1.48;;;18.00;99.90;;;;;;5014642;28;20435;-65
2023/10/19 07:07:56;;;;;;;23.05;3.05;;;18.10;99.90;;;;;;5014790;28;20018;-70
2023/10/19 07:10:22;;;;;;;16.80;3.63;;;18.10;99.90;;;;;;5012795;28;20037;-70
2023/10/19 07:12:51;;;;;;;14.40;2.20;;;18.00;99.90;;;;;;5014575;28;20391;-70
2023/10/19 07:15:22;;;;;;;12.88;2.38;;;18.10;99.90;;;;;;5014771;28;20022;-70
2023/10/19 07:17:48;;;;;;;7.85;2.30;;;18.00;99.90;;;;;;5014483;28;20383;-70
2023/10/19 07:20:25;;;;;;;18.02;3.13;;;18.10;99.90;;;;;;5014227;28;20022;-71
2023/10/19 07:22:52;;;;;;;11.50;3.55;;;18.10;99.90;;;;;;5014603;28;20093;-70
2023/10/19 07:25:21;;;;;;;13.65;2.28;;;18.00;99.90;;;;;;5014002;28;20036;-69
2023/10/19 07:27:50;;;;;;;12.05;2.30;;;18.10;99.90;;;;;;5014460;28;20030;-69
2023/10/19 07:30:21;;;;;;;17.95;2.58;;;18.10;99.90;;;;;;5014134;28;20033;-69
2023/10/19 07:32:51;;;;;;;13.80;2.70;;;18.10;99.90;;;;;;5014200;28;20052;-70
2023/10/19 07:35:18;;;;;;;15.90;2.78;;;18.10;99.90;;;;;;5012993;28;20026;-72
2023/10/19 07:37:44;;;;;;;13.80;2.47;;;18.10;99.90;;;;;;5014188;28;20018;-69
2023/10/19 07:40:13;;;;;;;10.75;2.33;;;18.10;99.90;;;;;;5013726;28;20061;-69
2023/10/19 07:42:40;;;;;;;17.67;2.72;;;18.10;99.90;;;;;;5014305;28;20422;-70
2023/10/19 07:45:09;;;;;;;12.95;2.63;;;18.10;99.90;;;;;;5013931;28;20033;-70
2023/10/19 07:47:34;;;;;;;10.52;2.53;;;18.10;99.90;;;;;;5013978;28;20022;-69
2023/10/19 07:50:02;;;;;;;13.70;3.05;;;18.20;99.90;;;;;;5013675;28;20096;-70
2023/10/19 07:52:28;;;;;;;15.60;2.80;;;18.20;99.90;;;;;;5014060;28;20014;-69
2023/10/19 07:54:54;;;;;;;14.27;2.58;;;18.10;99.90;;;;;;5013537;28;20029;-70
2023/10/19 07:57:20;;;;;;;10.77;2.85;;;18.10;99.90;;;;;;5013822;28;20022;-71
2023/10/19 07:59:47;;;;;;;11.18;2.97;;;18.20;99.90;;;;;;5013886;28;20064;-70
2023/10/19 08:02:13;;;;;;;9.13;2.53;;;18.10;99.90;;;;;;5013801;28;20029;-70
2023/10/19 08:04:39;;;;;;;10.23;2.47;;;18.20;99.90;;;;;;5013838;28;20025;-70
2023/10/19 08:07:04;;;;;;;12.05;2.95;;;18.20;99.90;;;;;;5013774;28;20030;-70
2023/10/19 08:09:35;;;;;;;10.40;3.10;;;18.20;99.90;;;;;;5012395;28;20037;-70
2023/10/19 08:12:01;;;;;;;10.27;2.42;;;18.20;99.90;;;;;;5013617;28;20092;-71
2023/10/19 08:14:27;;;;;;;9.15;1.92;;;18.20;99.90;;;;;;5013595;28;20022;-70
2023/10/19 08:16:53;;;;;;;12.18;3.25;;;18.20;99.90;;;;;;5013503;28;20021;-69
2023/10/19 08:19:19;;;;;;;12.18;2.80;;;18.20;99.90;;;;;;5013642;28;20068;-70
2023/10/19 08:21:45;;;;;;;27.30;4.90;;;18.20;99.90;;;;;;5013401;28;20030;-71
2023/10/19 08:24:13;;;;;;;23.10;3.47;;;18.20;99.90;;;;;;5013251;28;20081;-70
2023/10/19 08:26:42;;;;;;;17.63;2.90;;;18.20;99.90;;;;;;5013449;28;20061;-70
2023/10/19 08:29:12;;;;;;;11.00;2.53;;;18.20;99.90;;;;;;5013338;28;20037;-71
2023/10/19 08:31:42;;;;;;;10.38;2.38;;;18.20;99.90;;;;;;5013333;28;20065;-70
2023/10/19 08:34:11;;;;;;;11.75;3.35;;;18.30;99.90;;;;;;5013328;28;20105;-70
2023/10/19 08:36:40;;;;;;;10.13;2.53;;;18.30;99.90;;;;;;5013114;28;20033;-70
2023/10/19 08:39:07;;;;;;;14.55;3.30;;;18.20;99.90;;;;;;5013356;28;20030;-71
2023/10/19 08:41:37;;;;;;;15.55;2.58;;;18.30;99.90;;;;;;5013159;28;20057;-69
2023/10/19 08:44:15;;;;;;;12.40;2.63;;;18.30;99.90;;;;;;5013356;28;20020;-70
2023/10/19 08:46:48;;;;;;;8.38;1.85;;;18.30;99.90;;;;;;5013304;28;20065;-69
2023/10/19 08:49:15;;;;;;;7.80;2.25;;;18.30;99.90;;;;;;5013296;28;20375;-69
2023/10/19 08:51:46;;;;;;;11.98;2.75;;;18.30;99.90;;;;;;5011676;28;20062;-70
2023/10/19 08:54:13;;;;;;;11.68;2.15;;;18.30;99.90;;;;;;5013110;28;20041;-70
2023/10/19 08:56:41;;;;;;;11.73;2.72;;;18.30;99.90;;;;;;5013276;28;20419;-70
2023/10/19 08:59:10;;;;;;;6.20;1.80;;;18.30;99.90;;;;;;5013179;28;20022;-70
2023/10/19 09:01:37;;;;;;;10.35;2.53;;;18.30;99.90;;;;;;5013111;28;20084;-70
2023/10/19 09:04:05;;;;;;;12.32;2.65;;;18.30;99.90;;;;;;5013100;28;20022;-70
2023/10/19 09:06:41;;;;;;;11.02;2.33;;;18.30;99.90;;;;;;5012732;28;20033;-70
2023/10/19 09:09:16;;;;;;;13.05;3.03;;;18.30;99.90;;;;;;5012975;28;20028;-70
2023/10/19 09:11:43;;;;;;;12.07;3.15;;;18.30;99.90;;;;;;5012860;28;20057;-70
2023/10/19 09:14:12;;;;;;;12.40;3.00;;;18.30;99.90;;;;;;5013036;28;20014;-70
2023/10/19 09:16:52;;;;;;;13.27;2.13;;;18.30;99.90;;;;;;5012971;28;20022;-70
2023/10/19 09:19:19;;;;;;;9.50;2.83;;;18.40;99.90;;;;;;5013140;28;20026;-70
2023/10/19 09:21:46;;;;;;;12.02;2.28;;;18.40;99.90;;;;;;5016436;28;20494;-70
2023/10/19 09:24:12;;;;;;;10.20;2.55;;;18.40;99.90;;;;;;5016811;28;20025;-70
2023/10/19 09:26:37;;;;;;;6.30;2.03;;;18.40;99.90;;;;;;5016635;28;20029;-71
2023/10/19 09:29:03;;;;;;;6.95;2.30;;;18.40;99.90;;;;;;5016638;28;20022;-70
2023/10/19 09:31:30;;;;;;;10.18;2.53;;;18.40;99.90;;;;;;5016358;28;20029;-70
2023/10/19 09:33:57;;;;;;;10.20;2.00;;;18.40;99.90;;;;;;5016662;28;20045;-70
2023/10/19 09:36:29;;;;;;;9.73;2.00;;;18.40;99.90;;;;;;5016162;28;20053;-71
2023/10/19 09:38:57;;;;;;;6.93;1.88;;;18.40;99.90;;;;;;5016317;28;20018;-70
2023/10/19 09:41:28;;;;;;;9.90;2.45;;;18.40;99.90;;;;;;5016197;28;20030;-71
2023/10/19 09:44:04;;;;;;;11.40;2.30;;;18.40;99.90;;;;;;5016271;28;20119;-70
2023/10/19 09:46:32;;;;;;;7.45;1.95;;;18.40;99.90;;;;;;5016376;28;20014;-70
2023/10/19 09:48:59;;;;;;;8.45;2.42;;;18.40;99.90;;;;;;5016076;28;20391;-71
2023/10/19 09:51:25;;;;;;;12.23;2.50;;;18.50;99.90;;;;;;5015799;28;20034;-70
2023/10/19 09:54:10;;;;;;;10.90;2.50;;;18.50;99.90;;;;;;5016193;28;20520;-70
2023/10/19 09:56:41;;;;;;;11.05;2.80;;;18.50;99.90;;;;;;5016113;28;20104;-70
2023/10/19 09:59:13;;;;;;;9.90;2.20;;;18.50;99.90;;;;;;5016225;28;20100;-70
2023/10/19 10:02:08;;;;;;;10.32;2.83;;;18.50;99.90;;;;;;5016004;28;20267;-70
2023/10/19 10:04:37;;;;;;;9.25;2.50;;;18.50;99.90;;;;;;5011728;28;20487;-70
2023/10/19 10:07:06;;;;;;;11.15;2.63;;;18.50;99.90;;;;;;5015880;28;20021;-70
2023/10/19 10:09:43;;;;;;;15.57;2.92;;;18.50;99.90;;;;;;5015574;28;20037;-70
2023/10/19 10:12:17;;;;;;;10.65;2.55;;;18.50;99.90;;;;;;5015869;28;20048;-71
2023/10/19 10:15:07;;;;;;;9.63;2.15;;;18.50;99.90;;;;;;5015747;28;20026;-71
2023/10/19 10:17:40;;;;;;;10.48;2.03;;;18.50;99.90;;;;;;5015534;28;20080;-70
2023/10/19 10:20:14;;;;;;;10.98;2.30;;;18.50;99.90;;;;;;5015504;28;20068;-70
2023/10/19 10:22:43;;;;;;;7.97;1.65;;;18.50;99.90;;;;;;5015536;28;20036;-70
2023/10/19 10:25:27;;;;;;;10.70;2.45;;;18.50;99.90;;;;;;5015737;28;20088;-71
2023/10/19 10:27:53;;;;;;;10.27;2.15;;;18.50;99.90;;;;;;5015214;28;20022;-70
2023/10/19 10:30:18;;;;;;;8.75;2.45;;;18.60;99.90;;;;;;5015627;28;20026;-71
2023/10/19 10:32:44;;;;;;;9.05;2.17;;;18.50;99.90;;;;;;5014328;28;20463;-70
2023/10/19 10:35:10;;;;;;;8.65;2.50;;;18.60;99.90;;;;;;5015631;28;20032;-71
2023/10/19 10:37:37;;;;;;;7.57;1.98;;;18.60;99.90;;;;;;5015318;28;20483;-70
2023/10/19 10:40:05;;;;;;;9.95;2.30;;;18.60;99.90;;;;;;5015144;28;20108;-70
2023/10/19 10:42:31;;;;;;;7.70;1.88;;;18.60;99.90;;;;;;5014084;28;20113;-70
2023/10/19 10:44:58;;;;;;;9.85;2.42;;;18.60;99.90;;;;;;5015233;28;20177;-70
2023/10/19 10:47:29;;;;;;;10.88;2.58;;;18.60;99.90;;;;;;5014881;28;20026;-70
2023/10/19 10:49:59;;;;;;;8.27;2.40;;;18.60;99.90;;;;;;5015018;28;20026;-70
2023/10/19 10:52:34;;;;;;;10.60;2.53;;;18.60;99.90;;;;;;5015225;28;20021;-70
2023/10/19 10:55:09;;;;;;;10.10;2.20;;;18.60;99.90;;;;;;5014830;28;20029;-69
2023/10/19 10:57:34;;;;;;;9.85;2.22;;;18.60;99.90;;;;;;5015070;28;20033;-70
2023/10/19 11:00:07;;;;;;;10.23;1.85;;;18.70;99.90;;;;;;5014937;28;20387;-69
2023/10/19 11:02:36;;;;;;;8.85;2.42;;;18.60;99.90;;;;;;5014651;28;20534;-70
2023/10/19 11:05:02;;;;;;;10.38;2.50;;;18.70;99.90;;;;;;5014582;28;20528;-70
2023/10/19 11:07:29;;;;;;;12.13;2.92;;;18.70;99.90;;;;;;5014906;28;20010;-70
2023/10/19 11:09:55;;;;;;;6.95;1.77;;;18.70;99.90;;;;;;5014201;28;20034;-70
2023/10/19 11:12:21;;;;;;;15.57;2.90;;;18.70;99.90;;;;;;5014718;28;20045;-70
2023/10/19 11:15:00;;;;;;;8.15;2.10;;;18.70;99.90;;;;;;5014654;28;20025;-70
2023/10/19 11:17:30;;;;;;;6.20;2.05;;;18.70;99.90;;;;;;5014418;28;20106;-70
2023/10/19 11:19:57;;;;;;;7.22;2.15;;;18.80;99.90;;;;;;5014278;28;20129;-70
2023/10/19 11:22:26;;;;;;;9.38;1.80;;;18.80;99.90;;;;;;5014609;28;20033;-70
2023/10/19 11:24:56;;;;;;;11.25;2.60;;;18.70;99.90;;;;;;5014407;28;20022;-70
2023/10/19 11:27:27;;;;;;;6.30;1.58;;;18.80;99.90;;;;;;5014389;28;20534;-70
2023/10/19 11:30:04;;;;;;;8.23;1.95;;;18.80;99.90;;;;;;5014137;28;20482;-70
2023/10/19 11:32:40;;;;;;;9.60;2.15;;;18.80;99.90;;;;;;5014219;28;20032;-70
2023/10/19 11:35:09;;;;;;;8.43;1.90;;;18.80;99.90;;;;;;5014280;28;20080;-70
2023/10/19 11:37:52;;;;;;;7.22;2.13;;;18.80;99.90;;;;;;5014254;28;20054;-70
2023/10/19 11:40:19;;;;;;;9.68;2.50;;;18.80;99.90;;;;;;5014152;28;20025;-70
2023/10/19 11:42:45;;;;;;;8.82;2.03;;;18.80;99.90;;;;;;5014265;28;20022;-70
2023/10/19 11:45:11;;;;;;;8.02;1.83;;;18.80;99.90;;;;;;5013743;28;20038;-70
2023/10/19 11:47:37;;;;;;;7.70;2.50;;;18.80;99.90;;;;;;5014037;28;20098;-70
2023/10/19 11:50:03;;;;;;;7.95;2.42;;;18.80;99.90;;;;;;5013664;28;20382;-70
2023/10/19 11:52:30;;;;;;;9.15;2.88;;;18.80;99.90;;;;;;5014076;28;20040;-70
2023/10/19 11:54:56;;;;;;;10.23;1.98;;;18.90;99.90;;;;;;5014064;28;20026;-70
2023/10/19 11:57:23;;;;;;;10.10;2.50;;;18.80;99.90;;;;;;5013843;28;20041;-70
2023/10/19 11:59:52;;;;;;;7.38;2.03;;;18.80;99.90;;;;;;5013478;28;20644;-70
2023/10/19 12:02:18;;;;;;;9.20;2.63;;;18.80;99.90;;;;;;5012549;28;20064;-70
2023/10/19 12:04:45;;;;;;;8.20;2.05;;;18.80;99.90;;;;;;5013883;28;20045;-70
2023/10/19 12:07:11;;;;;;;10.63;2.72;;;18.90;99.90;;;;;;5013716;28;20014;-70
2023/10/19 12:09:37;;;;;;;7.47;1.98;;;18.90;99.90;;;;;;5013582;28;20482;-70
2023/10/19 12:12:05;;;;;;;8.55;1.92;;;18.90;99.90;;;;;;5013463;28;20054;-70
2023/10/19 12:14:34;;;;;;;12.57;2.47;;;18.90;99.90;;;;;;5013256;28;20501;-70
2023/10/19 12:17:01;;;;;;;8.43;1.98;;;18.90;99.90;;;;;;5013821;28;20076;-70
2023/10/19 12:19:29;;;;;;;7.30;2.30;;;18.90;99.90;;;;;;5013466;28;20018;-70
2023/10/19 12:21:55;;;;;;;9.05;2.10;;;18.90;99.90;;;;;;5013644;28;20026;-70
2023/10/19 12:24:21;;;;;;;8.25;2.40;;;18.90;99.90;;;;;;5013489;28;20061;-70
2023/10/19 12:26:47;;;;;;;9.27;2.92;;;18.90;99.90;;;;;;5013361;28;20022;-70
2023/10/19 12:29:16;;;;;;;8.75;1.83;;;18.90;99.90;;;;;;5013171;28;20029;-70
2023/10/19 12:31:42;;;;;;;9.02;2.30;;;19.00;99.90;;;;;;5012024;28;20037;-70
2023/10/19 12:34:07;;;;;;;7.95;1.67;;;19.00;99.90;;;;;;5013251;28;20026;-70
2023/10/19 12:36:35;;;;;;;6.78;2.70;;;18.90;99.90;;;;;;5013284;28;20494;-70
2023/10/19 12:39:01;;;;;;;13.30;2.47;;;19.00;99.90;;;;;;5013172;28;20034;-70
2023/10/19 12:41:27;;;;;;;7.13;1.92;;;19.00;99.90;;;;;;5013464;28;20049;-70
2023/10/19 12:43:57;;;;;;;8.63;2.33;;;19.00;99.90;;;;;;5013147;28;20058;-70
2023/10/19 12:46:24;;;;;;;7.28;1.75;;;19.00;99.90;;;;;;5013408;28;20022;-70
2023/10/19 12:48:57;;;;;;;8.55;2.40;;;19.00;99.90;;;;;;5013261;28;20028;-69
2023/10/19 12:51:23;;;;;;;7.63;2.33;;;19.00;99.90;;;;;;5013218;28;20037;-70
2023/10/19 12:53:53;;;;;;;6.03;1.48;;;19.00;99.90;;;;;;5013275;28;20022;-70
2023/10/19 12:56:20;;;;;;;5.78;1.85;;;19.00;99.90;;;;;;5015615;28;20018;-70
2023/10/19 12:58:48;;;;;;;9.25;2.00;;;19.00;99.90;;;;;;5016913;28;20471;-70
2023/10/19 13:01:18;;;;;;;7.10;1.85;;;19.00;99.90;;;;;;5017167;28;20022;-70
2023/10/19 13:03:45;;;;;;;8.30;2.10;;;19.00;99.90;;;;;;5016972;28;20053;-70
2023/10/19 13:06:12;;;;;;;6.35;1.95;;;19.00;99.90;;;;;;5016922;28;20041;-70
2023/10/19 13:08:40;;;;;;;8.02;2.40;;;19.00;99.90;;;;;;5016816;28;20034;-70
2023/10/19 13:11:10;;;;;;;6.68;1.85;;;19.00;99.90;;;;;;5016986;28;20121;-70
2023/10/19 13:13:39;;;;;;;5.15;1.58;;;19.00;99.90;;;;;;5016637;28;20018;-70